LIPR/RMI METAR and TAF weather

Enter ICAO airport designator
Station Type Date Time Source
LIPR METAR 2020/09/27 17:20 UTC NOAA

LIPR 271720Z 30009KT 7000 -RA SCT015 BKN060 11/11 Q1002


Station Type Date Time Source
LIPR Decoded METAR 2020/09/27 17:20 UTC NOAA

Rimini, Italy (LIPR) 44-02N 012-37E 13M
Sep 27, 2020 - 01:20 PM EDT / 2020.09.27 1720 UTC
Wind: from the WNW (300 degrees) at 10 MPH (9 KT):0
Visibility: 4 mile(s):0
Sky conditions: mostly cloudy
Weather: light rain
Temperature: 51 F (11 C)
Dew Point: 51 F (11 C)
Relative Humidity: 100%
Pressure (altimeter): 29.59 in. Hg (1002 hPa)
ob: LIPR 271720Z 30009KT 7000 -RA SCT015 BKN060 11/11 Q1002
cycle: 17

Station Type Date Time Source
LIPR TAF 2016/08/23 03:00 UTC NOAA

TAF LIPR 230200Z 2303/2312 04007KT CAVOK
BECMG 2308/2310 02010KT

Example: see airport list